Time;durP1;ratioP1;P1;durP2;ratioP2;P2;SDS_P1;SDS_P2;PMS_P1;PMS_P2;Temp;Humidity;BMP_temperature;BMP_pressure;BME280_temperature;BME280_humidity;BME280_pressure;Samples;Min_cycle;Max_cycle;Signal;HPM_P1;HPM_P2
2023/06/18 00:00:46;;;;;;;11.75;9.10;;;;;;;;;;5026687;28;20017;-71
2023/06/18 00:03:12;;;;;;;15.90;9.95;;;;;;;;;;5026369;28;20041;-72
2023/06/18 00:05:37;;;;;;;13.40;9.07;;;;;;;;;;5026863;28;20049;-72
2023/06/18 00:08:05;;;;;;;13.23;9.02;;;;;;;;;;5026453;28;20049;-72
2023/06/18 00:10:30;;;;;;;12.43;9.05;;;;;;;;;;5026614;28;20026;-72
2023/06/18 00:12:56;;;;;;;11.95;8.55;;;;;;;;;;5027206;28;20021;-72
2023/06/18 00:15:21;;;;;;;12.50;9.18;;;;;;;;;;5026641;28;20048;-72
2023/06/18 00:17:46;;;;;;;13.50;9.32;;;;;;;;;;5026524;28;20037;-72
2023/06/18 00:20:12;;;;;;;12.95;8.88;;;;;;;;;;5026708;28;20052;-72
2023/06/18 00:22:38;;;;;;;12.38;9.27;;;;;;;;;;5026518;28;21201;-72
2023/06/18 00:25:07;;;;;;;15.68;8.55;;;;;;;;;;5026277;28;20022;-72
2023/06/18 00:27:32;;;;;;;11.70;8.63;;;;;;;;;;5024887;28;20041;-72
2023/06/18 00:29:59;;;;;;;13.82;9.15;;;;;;;;;;5021429;28;20045;-73
2023/06/18 00:32:24;;;;;;;11.98;8.90;;;;;;;;;;5024726;28;20565;-72
2023/06/18 00:34:53;;;;;;;11.48;9.23;;;;;;;;;;5024951;28;20033;-72
2023/06/18 00:37:20;;;;;;;12.05;9.43;;;;;;;;;;5025662;28;20041;-72
2023/06/18 00:39:46;;;;;;;12.25;9.20;;;;;;;;;;5026260;28;20041;-71
2023/06/18 00:42:12;;;;;;;11.65;8.20;;;;;;;;;;5025779;28;20025;-71
2023/06/18 00:44:39;;;;;;;11.98;8.45;;;;;;;;;;5025685;28;20048;-71
2023/06/18 00:47:06;;;;;;;13.75;9.10;;;;;;;;;;5024828;28;20034;-71
2023/06/18 00:49:31;;;;;;;16.67;9.20;;;;;;;;;;5026138;28;20044;-71
2023/06/18 00:51:58;;;;;;;11.35;8.85;;;;;;;;;;5026684;28;20100;-71
2023/06/18 00:54:25;;;;;;;17.52;9.63;;;;;;;;;;5020875;28;20046;-71
2023/06/18 00:56:50;;;;;;;13.73;9.32;;;;;;;;;;5024778;28;20037;-72
2023/06/18 00:59:22;;;;;;;12.65;9.45;;;;;;;;;;5025987;28;20029;-72
2023/06/18 01:01:53;;;;;;;14.45;9.23;;;;;;;;;;5025870;28;20068;-72
2023/06/18 01:04:25;;;;;;;13.13;9.07;;;;;;;;;;5023475;28;20061;-71
2023/06/18 01:06:55;;;;;;;11.70;8.63;;;;;;;;;;5026465;28;20112;-71
2023/06/18 01:09:22;;;;;;;13.18;9.50;;;;;;;;;;5025582;28;20124;-71
2023/06/18 01:11:52;;;;;;;16.05;9.20;;;;;;;;;;5028390;28;20040;-71
2023/06/18 01:14:22;;;;;;;12.95;8.95;;;;;;;;;;5033654;28;20033;-71
2023/06/18 01:16:49;;;;;;;12.15;8.63;;;;;;;;;;5034024;28;20400;-71
2023/06/18 01:19:35;;;;;;;12.60;8.82;;;;;;;;;;5026545;28;20060;-71
2023/06/18 01:22:08;;;;;;;11.90;8.90;;;;;;;;;;5026496;28;20018;-71
2023/06/18 01:24:38;;;;;;;11.63;9.00;;;;;;;;;;5013361;28;20038;-71
2023/06/18 01:27:05;;;;;;;14.13;7.97;;;;;;;;;;5025285;28;20476;-71
2023/06/18 01:29:31;;;;;;;12.00;7.85;;;;;;;;;;5025489;28;20041;-71
2023/06/18 01:31:57;;;;;;;10.20;7.75;;;;;;;;;;5025963;28;20034;-71
2023/06/18 01:34:24;;;;;;;10.57;7.90;;;;;;;;;;5025558;28;20087;-71
2023/06/18 01:36:56;;;;;;;10.00;7.70;;;;;;;;;;5024868;28;20036;-71
2023/06/18 01:39:37;;;;;;;11.73;7.68;;;;;;;;;;5025380;28;20042;-71
2023/06/18 01:42:16;;;;;;;14.70;8.20;;;;;;;;;;5008608;28;20053;-71
2023/06/18 01:44:45;;;;;;;10.68;7.80;;;;;;;;;;5019955;28;20052;-71
2023/06/18 01:47:13;;;;;;;9.32;7.45;;;;;;;;;;5025239;28;20045;-71
2023/06/18 01:49:40;;;;;;;10.80;8.00;;;;;;;;;;5025294;28;20034;-71
2023/06/18 01:52:07;;;;;;;9.48;7.65;;;;;;;;;;5025377;28;20030;-71
2023/06/18 01:54:33;;;;;;;9.95;7.47;;;;;;;;;;5024958;28;20048;-71
2023/06/18 01:57:00;;;;;;;11.40;7.43;;;;;;;;;;5025971;28;20043;-71
2023/06/18 01:59:25;;;;;;;9.93;7.18;;;;;;;;;;5024588;28;20499;-71
2023/06/18 02:01:51;;;;;;;13.25;7.38;;;;;;;;;;5025085;28;20067;-71
2023/06/18 02:04:16;;;;;;;13.50;7.10;;;;;;;;;;5023865;28;20087;-71
2023/06/18 02:06:42;;;;;;;9.88;7.45;;;;;;;;;;5025083;28;20503;-71
2023/06/18 02:09:08;;;;;;;10.10;7.68;;;;;;;;;;5023963;28;20415;-71
2023/06/18 02:11:34;;;;;;;8.25;7.03;;;;;;;;;;5024401;28;20037;-71
2023/06/18 02:13:59;;;;;;;11.45;7.35;;;;;;;;;;5024726;28;20038;-71
2023/06/18 02:16:25;;;;;;;9.00;7.15;;;;;;;;;;5024821;28;20561;-71
2023/06/18 02:18:50;;;;;;;9.93;7.45;;;;;;;;;;5024709;28;20021;-72
2023/06/18 02:21:15;;;;;;;9.02;7.30;;;;;;;;;;5022233;28;20136;-71
2023/06/18 02:23:41;;;;;;;11.35;7.68;;;;;;;;;;5020739;28;20068;-71
2023/06/18 02:26:08;;;;;;;11.95;7.60;;;;;;;;;;5023868;28;20030;-71
2023/06/18 02:28:34;;;;;;;12.05;7.63;;;;;;;;;;5025031;28;20118;-71
2023/06/18 02:30:59;;;;;;;10.38;7.88;;;;;;;;;;5023093;28;20033;-71
2023/06/18 02:33:25;;;;;;;12.13;7.25;;;;;;;;;;5024485;28;20079;-71
2023/06/18 02:35:50;;;;;;;9.50;7.53;;;;;;;;;;5025007;28;20048;-71
2023/06/18 02:38:16;;;;;;;10.40;7.45;;;;;;;;;;5020864;28;20122;-71
2023/06/18 02:40:41;;;;;;;11.32;7.85;;;;;;;;;;5027369;28;20730;-71
2023/06/18 02:43:08;;;;;;;10.73;7.47;;;;;;;;;;5035743;28;20032;-71
2023/06/18 02:45:34;;;;;;;10.13;8.00;;;;;;;;;;5023743;28;20048;-71
2023/06/18 02:47:59;;;;;;;10.23;7.18;;;;;;;;;;5024106;28;20049;-71
2023/06/18 02:50:25;;;;;;;11.43;7.03;;;;;;;;;;5022321;28;20038;-71
2023/06/18 02:52:50;;;;;;;12.77;7.75;;;;;;;;;;5024177;28;20033;-71
2023/06/18 02:55:15;;;;;;;12.40;7.65;;;;;;;;;;5024190;28;20036;-71
2023/06/18 02:57:41;;;;;;;9.85;7.22;;;;;;;;;;5021922;28;20028;-71
2023/06/18 03:00:12;;;;;;;10.27;6.90;;;;;;;;;;5024139;28;20064;-71
2023/06/18 03:02:39;;;;;;;8.35;6.70;;;;;;;;;;5023720;28;20086;-71
2023/06/18 03:05:04;;;;;;;8.68;6.85;;;;;;;;;;5023193;28;20037;-71
2023/06/18 03:07:30;;;;;;;9.63;7.55;;;;;;;;;;5024049;28;20024;-71
2023/06/18 03:09:56;;;;;;;11.63;7.68;;;;;;;;;;5024193;28;20044;-71
2023/06/18 03:12:21;;;;;;;11.18;7.60;;;;;;;;;;5023730;28;20050;-71
2023/06/18 03:14:47;;;;;;;9.57;7.03;;;;;;;;;;5024393;28;20092;-71
2023/06/18 03:17:12;;;;;;;10.45;7.57;;;;;;;;;;5023073;28;20026;-71
2023/06/18 03:19:38;;;;;;;10.20;7.53;;;;;;;;;;5022365;28;20095;-71
2023/06/18 03:22:04;;;;;;;12.07;8.07;;;;;;;;;;5024175;28;20028;-71
2023/06/18 03:24:29;;;;;;;10.20;7.45;;;;;;;;;;5017659;28;20516;-71
2023/06/18 03:26:58;;;;;;;9.23;7.45;;;;;;;;;;5015525;28;20064;-71
2023/06/18 03:29:28;;;;;;;9.85;7.22;;;;;;;;;;5010537;28;20775;-71
2023/06/18 03:31:54;;;;;;;11.98;7.93;;;;;;;;;;5023844;28;20060;-71
2023/06/18 03:34:22;;;;;;;10.55;7.13;;;;;;;;;;5023786;28;20514;-71
2023/06/18 03:36:49;;;;;;;10.88;7.47;;;;;;;;;;5023846;28;20398;-71
2023/06/18 03:39:15;;;;;;;8.98;6.65;;;;;;;;;;5022382;28;20042;-71
2023/06/18 03:41:41;;;;;;;10.32;7.32;;;;;;;;;;5023097;28;20071;-71
2023/06/18 03:44:07;;;;;;;11.13;7.38;;;;;;;;;;5023407;28;20116;-71
2023/06/18 03:46:32;;;;;;;9.40;6.90;;;;;;;;;;5023369;28;20120;-71
2023/06/18 03:48:58;;;;;;;13.77;7.43;;;;;;;;;;5023803;28;20112;-71
2023/06/18 03:51:24;;;;;;;10.13;7.60;;;;;;;;;;5023063;28;20045;-71
2023/06/18 03:53:50;;;;;;;11.77;7.43;;;;;;;;;;5023261;28;20073;-71
2023/06/18 03:56:15;;;;;;;9.73;7.60;;;;;;;;;;5023489;28;20030;-71
2023/06/18 03:58:40;;;;;;;11.88;8.00;;;;;;;;;;5023070;28;20041;-71
2023/06/18 04:01:07;;;;;;;11.07;8.15;;;;;;;;;;5024245;28;20732;-71
2023/06/18 04:03:32;;;;;;;10.65;8.20;;;;;;;;;;5023765;28;20087;-71
2023/06/18 04:05:58;;;;;;;13.95;8.50;;;;;;;;;;5025265;28;20385;-71
2023/06/18 04:08:23;;;;;;;12.68;8.63;;;;;;;;;;5035245;28;20041;-71
2023/06/18 04:10:48;;;;;;;12.35;8.50;;;;;;;;;;5036816;28;20098;-71
2023/06/18 04:13:15;;;;;;;13.35;8.85;;;;;;;;;;5028281;28;20030;-71
2023/06/18 04:15:41;;;;;;;13.27;8.43;;;;;;;;;;5027904;28;20036;-71
2023/06/18 04:18:07;;;;;;;13.73;8.65;;;;;;;;;;5024332;28;20522;-71
2023/06/18 04:20:32;;;;;;;12.52;8.95;;;;;;;;;;5017861;28;20071;-72
2023/06/18 04:22:58;;;;;;;13.27;9.02;;;;;;;;;;5026763;28;20770;-71
2023/06/18 04:25:23;;;;;;;13.73;8.77;;;;;;;;;;5026835;28;20041;-71
2023/06/18 04:27:48;;;;;;;13.52;9.00;;;;;;;;;;5022721;28;20037;-71
2023/06/18 04:30:14;;;;;;;13.65;9.15;;;;;;;;;;5025823;28;20087;-71
2023/06/18 04:32:39;;;;;;;12.77;8.40;;;;;;;;;;5025306;28;20041;-72
2023/06/18 04:35:05;;;;;;;13.25;8.95;;;;;;;;;;5026744;28;20654;-71
2023/06/18 04:37:31;;;;;;;11.57;8.77;;;;;;;;;;5026334;28;20037;-71
2023/06/18 04:39:56;;;;;;;14.52;8.80;;;;;;;;;;5027253;28;20029;-71
2023/06/18 04:42:22;;;;;;;13.63;9.30;;;;;;;;;;5026468;28;20112;-71
2023/06/18 04:44:47;;;;;;;14.90;9.00;;;;;;;;;;5026242;28;20037;-71
2023/06/18 04:47:12;;;;;;;11.90;8.90;;;;;;;;;;5026597;28;20534;-72
2023/06/18 04:49:38;;;;;;;11.85;8.35;;;;;;;;;;5026656;28;20037;-72
2023/06/18 04:52:03;;;;;;;11.70;8.63;;;;;;;;;;5027504;28;20399;-72
2023/06/18 04:54:29;;;;;;;12.35;8.45;;;;;;;;;;5026336;28;20068;-72
2023/06/18 04:56:57;;;;;;;12.95;8.75;;;;;;;;;;5026554;28;20099;-72
2023/06/18 04:59:22;;;;;;;13.80;9.70;;;;;;;;;;5026154;28;20026;-72
2023/06/18 05:01:49;;;;;;;13.32;8.93;;;;;;;;;;5026084;28;20041;-72
2023/06/18 05:04:14;;;;;;;15.30;9.60;;;;;;;;;;5025613;28;20071;-72
2023/06/18 05:06:39;;;;;;;12.23;9.15;;;;;;;;;;5026535;28;20029;-72
2023/06/18 05:09:05;;;;;;;14.50;9.38;;;;;;;;;;5026165;28;20073;-72
2023/06/18 05:11:30;;;;;;;11.13;9.02;;;;;;;;;;5025601;28;20068;-71
2023/06/18 05:13:55;;;;;;;11.70;9.00;;;;;;;;;;5025896;28;20057;-71
2023/06/18 05:16:21;;;;;;;12.45;8.52;;;;;;;;;;5026175;28;20034;-71
2023/06/18 05:18:46;;;;;;;13.38;8.43;;;;;;;;;;5025712;28;20014;-71
2023/06/18 05:21:11;;;;;;;11.27;8.00;;;;;;;;;;5024979;28;20040;-71
2023/06/18 05:23:37;;;;;;;12.93;8.45;;;;;;;;;;5024360;28;20038;-71
2023/06/18 05:26:02;;;;;;;12.40;9.25;;;;;;;;;;5012850;28;20117;-71
2023/06/18 05:28:27;;;;;;;12.02;8.55;;;;;;;;;;5026025;28;20052;-71
2023/06/18 05:30:53;;;;;;;11.75;7.88;;;;;;;;;;5026669;28;20664;-71
2023/06/18 05:33:18;;;;;;;10.95;8.27;;;;;;;;;;5029297;28;20026;-71
2023/06/18 05:35:43;;;;;;;12.30;8.82;;;;;;;;;;5034886;28;20041;-71
2023/06/18 05:38:09;;;;;;;12.88;8.27;;;;;;;;;;5029742;28;20034;-71
2023/06/18 05:40:34;;;;;;;15.35;8.82;;;;;;;;;;5011975;28;20062;-71
2023/06/18 05:42:59;;;;;;;14.95;9.35;;;;;;;;;;5025625;28;20053;-71
2023/06/18 05:45:25;;;;;;;12.85;8.65;;;;;;;;;;5025244;28;20080;-71
2023/06/18 05:47:50;;;;;;;12.75;8.77;;;;;;;;;;5024950;28;20053;-71
2023/06/18 05:50:16;;;;;;;12.00;8.75;;;;;;;;;;5024962;28;20064;-71
2023/06/18 05:52:41;;;;;;;13.00;8.50;;;;;;;;;;5025206;28;20053;-71
2023/06/18 05:55:07;;;;;;;11.70;8.65;;;;;;;;;;5025368;28;20029;-71
2023/06/18 05:57:32;;;;;;;12.27;8.90;;;;;;;;;;5024864;28;20041;-71
2023/06/18 05:59:57;;;;;;;11.95;7.97;;;;;;;;;;5024828;28;20128;-71
2023/06/18 06:02:23;;;;;;;14.18;7.95;;;;;;;;;;5024509;28;20036;-72
2023/06/18 06:04:48;;;;;;;13.35;8.15;;;;;;;;;;5024524;28;20037;-72
2023/06/18 06:07:13;;;;;;;13.18;8.35;;;;;;;;;;5024727;28;20108;-72
2023/06/18 06:09:39;;;;;;;11.93;8.07;;;;;;;;;;5023594;28;20033;-72
2023/06/18 06:12:05;;;;;;;14.02;8.32;;;;;;;;;;5024671;28;20565;-72
2023/06/18 06:14:31;;;;;;;11.18;7.78;;;;;;;;;;5024554;28;20033;-72
2023/06/18 06:16:57;;;;;;;12.65;7.30;;;;;;;;;;5019567;28;20087;-71
2023/06/18 06:19:23;;;;;;;11.43;7.38;;;;;;;;;;5010898;28;20056;-71
2023/06/18 06:21:49;;;;;;;12.20;7.72;;;;;;;;;;5009537;28;20018;-71
2023/06/18 06:24:15;;;;;;;12.30;7.60;;;;;;;;;;5017675;28;20050;-71
2023/06/18 06:26:41;;;;;;;11.02;7.85;;;;;;;;;;5015775;28;20462;-71
2023/06/18 06:29:06;;;;;;;13.73;7.75;;;;;;;;;;5022651;28;20542;-71
2023/06/18 06:31:32;;;;;;;13.38;8.60;;;;;;;;;;5023551;28;20041;-72
2023/06/18 06:33:57;;;;;;;11.13;8.00;;;;;;;;;;5025231;28;20025;-72
2023/06/18 06:36:22;;;;;;;12.07;8.05;;;;;;;;;;5023790;28;20029;-72
2023/06/18 06:38:48;;;;;;;12.50;7.82;;;;;;;;;;5024519;28;20037;-72
2023/06/18 06:41:13;;;;;;;11.80;6.85;;;;;;;;;;5019231;28;20129;-71
2023/06/18 06:43:39;;;;;;;10.25;7.10;;;;;;;;;;5012114;28;20034;-71
2023/06/18 06:46:05;;;;;;;10.85;7.00;;;;;;;;;;5024352;28;20036;-71
2023/06/18 06:48:30;;;;;;;10.55;7.55;;;;;;;;;;5009762;28;20422;-71
2023/06/18 06:50:56;;;;;;;12.85;7.47;;;;;;;;;;5022187;28;20044;-71
2023/06/18 06:53:21;;;;;;;9.80;7.57;;;;;;;;;;5023267;28;20525;-71
2023/06/18 06:55:48;;;;;;;11.75;7.80;;;;;;;;;;5022295;28;20041;-71
2023/06/18 06:58:13;;;;;;;10.88;7.45;;;;;;;;;;5016725;28;20696;-72
2023/06/18 07:00:39;;;;;;;10.70;7.55;;;;;;;;;;5023400;28;20017;-71
2023/06/18 07:03:04;;;;;;;14.25;8.38;;;;;;;;;;5034992;28;20041;-71
2023/06/18 07:05:30;;;;;;;11.43;8.02;;;;;;;;;;5026830;28;20061;-71
2023/06/18 07:07:55;;;;;;;9.15;7.20;;;;;;;;;;5024706;28;20044;-71
2023/06/18 07:10:21;;;;;;;10.63;7.22;;;;;;;;;;5024139;28;20036;-71
2023/06/18 07:12:46;;;;;;;14.75;7.50;;;;;;;;;;5024654;28;20534;-71
2023/06/18 07:15:11;;;;;;;10.80;7.95;;;;;;;;;;5024056;28;20065;-72
2023/06/18 07:17:37;;;;;;;11.48;7.70;;;;;;;;;;5024135;28;20041;-71
2023/06/18 07:20:02;;;;;;;11.85;7.63;;;;;;;;;;5023911;28;20030;-71
2023/06/18 07:22:28;;;;;;;11.52;8.38;;;;;;;;;;5023985;28;20025;-71
2023/06/18 07:24:56;;;;;;;10.20;7.80;;;;;;;;;;5022825;28;20029;-72
2023/06/18 07:27:22;;;;;;;13.40;8.65;;;;;;;;;;5019745;28;20091;-71
2023/06/18 07:29:47;;;;;;;11.15;7.90;;;;;;;;;;5022787;28;20658;-71
2023/06/18 07:32:12;;;;;;;12.38;8.20;;;;;;;;;;5022549;28;20056;-71
2023/06/18 07:34:38;;;;;;;9.05;7.13;;;;;;;;;;5024012;28;20041;-71
2023/06/18 07:37:03;;;;;;;9.70;7.22;;;;;;;;;;5024115;28;20025;-72
2023/06/18 07:39:29;;;;;;;9.90;7.35;;;;;;;;;;5023728;28;20564;-71
2023/06/18 07:41:54;;;;;;;9.40;7.18;;;;;;;;;;5003649;28;20045;-70
2023/06/18 07:44:19;;;;;;;12.00;6.80;;;;;;;;;;5017850;28;20801;-71
2023/06/18 07:46:45;;;;;;;8.93;6.68;;;;;;;;;;5026994;28;20132;-71
2023/06/18 07:49:10;;;;;;;9.25;7.00;;;;;;;;;;5020899;28;20406;-71
2023/06/18 07:51:36;;;;;;;10.20;6.90;;;;;;;;;;5020636;28;20041;-71
2023/06/18 07:54:01;;;;;;;10.30;6.88;;;;;;;;;;5018882;28;20044;-71
2023/06/18 07:56:26;;;;;;;10.05;6.55;;;;;;;;;;5023264;28;20132;-71
2023/06/18 07:58:52;;;;;;;10.27;7.03;;;;;;;;;;5016816;28;20434;-71
2023/06/18 08:01:18;;;;;;;8.82;6.13;;;;;;;;;;5024833;28;20075;-71
2023/06/18 08:03:43;;;;;;;8.77;6.20;;;;;;;;;;5014070;28;20081;-71
2023/06/18 08:06:09;;;;;;;9.02;6.55;;;;;;;;;;5024326;28;20131;-71
2023/06/18 08:08:34;;;;;;;10.43;6.30;;;;;;;;;;5025311;28;20091;-71
2023/06/18 08:10:59;;;;;;;9.57;6.60;;;;;;;;;;5026294;28;20036;-70
2023/06/18 08:13:25;;;;;;;7.65;6.00;;;;;;;;;;5012470;28;20055;-71
2023/06/18 08:15:51;;;;;;;8.20;5.90;;;;;;;;;;5019443;28;20128;-72
2023/06/18 08:18:16;;;;;;;10.02;6.07;;;;;;;;;;5010079;28;20049;-72
2023/06/18 08:20:41;;;;;;;8.63;5.93;;;;;;;;;;5023881;28;20045;-71
2023/06/18 08:23:07;;;;;;;9.65;6.75;;;;;;;;;;5025942;28;20142;-71
2023/06/18 08:25:32;;;;;;;7.40;6.07;;;;;;;;;;5023954;28;20032;-71
2023/06/18 08:27:58;;;;;;;8.50;6.20;;;;;;;;;;5032068;28;20030;-71
2023/06/18 08:30:24;;;;;;;8.52;6.07;;;;;;;;;;5036603;28;20037;-71
2023/06/18 08:32:50;;;;;;;10.93;5.93;;;;;;;;;;5021319;28;20049;-71
2023/06/18 08:35:15;;;;;;;8.65;6.65;;;;;;;;;;5021321;28;20061;-73
2023/06/18 08:37:40;;;;;;;10.13;6.63;;;;;;;;;;5024136;28;20056;-71
2023/06/18 08:40:07;;;;;;;9.23;7.00;;;;;;;;;;5010311;28;20114;-71
2023/06/18 08:42:33;;;;;;;10.40;6.70;;;;;;;;;;5022310;28;20041;-72
2023/06/18 08:44:59;;;;;;;9.27;5.93;;;;;;;;;;5013904;28;20393;-72
2023/06/18 08:47:27;;;;;;;9.52;5.85;;;;;;;;;;5019010;28;20539;-72
2023/06/18 08:49:56;;;;;;;9.90;6.10;;;;;;;;;;5019338;28;20041;-72
2023/06/18 08:52:23;;;;;;;7.10;5.78;;;;;;;;;;5015527;28;20059;-72
2023/06/18 08:54:53;;;;;;;7.80;5.47;;;;;;;;;;5015540;28;20408;-72
2023/06/18 08:57:43;;;;;;;7.70;5.78;;;;;;;;;;5009304;28;20136;-72
2023/06/18 09:00:09;;;;;;;8.30;6.10;;;;;;;;;;5018599;28;20052;-71
2023/06/18 09:02:34;;;;;;;9.57;6.03;;;;;;;;;;5012241;28;20045;-72
2023/06/18 09:05:04;;;;;;;7.68;6.53;;;;;;;;;;5020180;28;20521;-72
2023/06/18 09:07:30;;;;;;;7.82;6.60;;;;;;;;;;5020374;28;20038;-72
2023/06/18 09:09:56;;;;;;;7.85;6.25;;;;;;;;;;5016712;28;20091;-75
2023/06/18 09:12:21;;;;;;;9.77;6.90;;;;;;;;;;5021239;28;20094;-72
2023/06/18 09:14:47;;;;;;;9.63;7.20;;;;;;;;;;5016189;28;20044;-73
2023/06/18 09:17:12;;;;;;;10.20;7.00;;;;;;;;;;5016100;28;20131;-73
2023/06/18 09:19:38;;;;;;;10.98;7.90;;;;;;;;;;5011977;28;20084;-73
2023/06/18 09:22:17;;;;;;;10.32;7.60;;;;;;;;;;5015913;28;20032;-73
2023/06/18 09:24:43;;;;;;;11.20;7.47;;;;;;;;;;5015859;28;20045;-73
2023/06/18 09:27:09;;;;;;;9.57;7.28;;;;;;;;;;5013479;28;20071;-73
2023/06/18 09:29:36;;;;;;;9.45;7.53;;;;;;;;;;5008886;28;20045;-72
2023/06/18 09:32:07;;;;;;;10.73;7.82;;;;;;;;;;5023616;28;20589;-72
2023/06/18 09:34:32;;;;;;;9.57;7.72;;;;;;;;;;5025123;28;20029;-72
2023/06/18 09:36:58;;;;;;;12.32;8.38;;;;;;;;;;5022469;28;20075;-72
2023/06/18 09:39:25;;;;;;;10.57;8.65;;;;;;;;;;5017872;28;20137;-72
2023/06/18 09:41:52;;;;;;;11.95;8.68;;;;;;;;;;5021287;28;20052;-72
2023/06/18 09:44:18;;;;;;;12.80;8.88;;;;;;;;;;5020276;28;20151;-72
2023/06/18 09:46:46;;;;;;;11.52;9.27;;;;;;;;;;5021342;28;20041;-72
2023/06/18 09:49:20;;;;;;;11.93;9.00;;;;;;;;;;5023892;28;20029;-72
2023/06/18 09:51:48;;;;;;;13.85;9.30;;;;;;;;;;5025938;28;20037;-73
2023/06/18 09:54:13;;;;;;;15.18;9.63;;;;;;;;;;5028528;28;20038;-73
2023/06/18 09:56:54;;;;;;;14.82;9.85;;;;;;;;;;5038357;28;20044;-72
2023/06/18 09:59:19;;;;;;;12.48;9.55;;;;;;;;;;5017985;28;20034;-74
2023/06/18 10:01:46;;;;;;;14.15;9.90;;;;;;;;;;5008123;28;20448;-73
2023/06/18 10:04:12;;;;;;;11.50;9.23;;;;;;;;;;5023305;28;20056;-73
2023/06/18 10:06:40;;;;;;;12.98;10.10;;;;;;;;;;5003809;28;20038;-73
2023/06/18 10:09:07;;;;;;;14.23;10.15;;;;;;;;;;5007265;28;20088;-73
2023/06/18 10:11:34;;;;;;;14.25;10.25;;;;;;;;;;5015153;28;20907;-73
2023/06/18 10:14:05;;;;;;;14.80;10.98;;;;;;;;;;5024218;28;20037;-73
2023/06/18 10:16:33;;;;;;;16.02;11.07;;;;;;;;;;5022455;28;20071;-73
2023/06/18 10:19:22;;;;;;;16.10;10.15;;;;;;;;;;5018349;28;20025;-73
2023/06/18 10:21:57;;;;;;;13.98;10.10;;;;;;;;;;5022876;28;20069;-73
2023/06/18 10:24:30;;;;;;;14.40;10.85;;;;;;;;;;5019121;28;20045;-73
2023/06/18 10:26:56;;;;;;;13.45;9.75;;;;;;;;;;5016876;28;20511;-73
2023/06/18 10:29:22;;;;;;;12.85;9.57;;;;;;;;;;5018568;28;20033;-73
2023/06/18 10:31:49;;;;;;;13.90;10.30;;;;;;;;;;5018279;28;20446;-73
2023/06/18 10:34:16;;;;;;;14.63;10.00;;;;;;;;;;5014580;28;20025;-73
2023/06/18 10:36:42;;;;;;;12.50;9.88;;;;;;;;;;5023358;28;20029;-73
2023/06/18 10:39:07;;;;;;;13.48;9.20;;;;;;;;;;5024860;28;20059;-73
2023/06/18 10:41:34;;;;;;;13.02;9.77;;;;;;;;;;5024323;28;20703;-73
2023/06/18 10:43:59;;;;;;;12.82;9.68;;;;;;;;;;5023895;28;20453;-72
2023/06/18 10:46:25;;;;;;;13.10;9.75;;;;;;;;;;5023333;28;20025;-72
2023/06/18 10:49:17;;;;;;;13.05;9.80;;;;;;;;;;5021497;28;20025;-71
2023/06/18 10:52:22;;;;;;;14.02;10.13;;;;;;;;;;5022921;28;20050;-71
2023/06/18 10:54:47;;;;;;;14.13;9.80;;;;;;;;;;5023240;28;20045;-71
2023/06/18 10:57:13;;;;;;;15.57;9.88;;;;;;;;;;5019628;28;20045;-71
2023/06/18 10:59:46;;;;;;;13.63;9.77;;;;;;;;;;5018391;28;20045;-71
2023/06/18 11:02:12;;;;;;;13.07;10.05;;;;;;;;;;5017268;28;20038;-71
2023/06/18 11:04:38;;;;;;;13.70;9.73;;;;;;;;;;5017204;28;20045;-71
2023/06/18 11:07:31;;;;;;;13.15;9.95;;;;;;;;;;5015906;28;20079;-72
2023/06/18 11:09:58;;;;;;;13.45;9.98;;;;;;;;;;5013724;28;20042;-72
2023/06/18 11:12:28;;;;;;;14.27;10.20;;;;;;;;;;5016985;28;20041;-72
2023/06/18 11:15:17;;;;;;;13.25;10.30;;;;;;;;;;5016065;28;20038;-71
2023/06/18 11:17:46;;;;;;;12.07;9.45;;;;;;;;;;5014856;28;20120;-71
2023/06/18 11:20:12;;;;;;;12.32;9.98;;;;;;;;;;5020986;28;20045;-72
2023/06/18 11:22:40;;;;;;;13.20;9.52;;;;;;;;;;5023061;28;20049;-73
2023/06/18 11:25:08;;;;;;;12.10;9.98;;;;;;;;;;5027447;28;20036;-72
2023/06/18 11:27:34;;;;;;;12.70;9.70;;;;;;;;;;5016755;28;20128;-72
2023/06/18 11:30:00;;;;;;;13.10;9.77;;;;;;;;;;5016832;28;20112;-72
2023/06/18 11:32:25;;;;;;;12.98;9.60;;;;;;;;;;5015921;28;20069;-72
2023/06/18 11:34:51;;;;;;;13.35;10.02;;;;;;;;;;5017260;28;20088;-72
2023/06/18 11:37:17;;;;;;;13.18;8.75;;;;;;;;;;5016726;28;20045;-72
2023/06/18 11:39:43;;;;;;;11.63;8.40;;;;;;;;;;5016844;28;20025;-72
2023/06/18 11:42:12;;;;;;;10.88;8.38;;;;;;;;;;5012096;28;20034;-71
2023/06/18 11:44:47;;;;;;;12.68;9.27;;;;;;;;;;5017003;28;20045;-72
2023/06/18 11:47:13;;;;;;;9.90;8.48;;;;;;;;;;5015204;28;20054;-72
2023/06/18 11:49:48;;;;;;;12.23;9.30;;;;;;;;;;5010951;28;20048;-71
2023/06/18 11:52:16;;;;;;;9.10;7.70;;;;;;;;;;5010837;28;20597;-71
2023/06/18 11:54:43;;;;;;;9.25;7.85;;;;;;;;;;5018256;28;20029;-72
2023/06/18 11:57:13;;;;;;;15.23;8.65;;;;;;;;;;5013376;28;20124;-72
2023/06/18 11:59:39;;;;;;;11.02;7.82;;;;;;;;;;5018676;28;20041;-72
2023/06/18 12:02:19;;;;;;;12.15;9.13;;;;;;;;;;5010526;28;20533;-71
2023/06/18 12:04:45;;;;;;;11.93;8.15;;;;;;;;;;5012887;28;20720;-72
2023/06/18 12:07:21;;;;;;;10.27;8.45;;;;;;;;;;5014761;28;20037;-71
2023/06/18 12:09:48;;;;;;;11.10;8.63;;;;;;;;;;5018160;28;20530;-72
2023/06/18 12:12:19;;;;;;;11.82;8.25;;;;;;;;;;5012731;28;20061;-72
2023/06/18 12:15:00;;;;;;;9.90;8.32;;;;;;;;;;5016831;28;20050;-72
2023/06/18 12:17:25;;;;;;;12.18;8.55;;;;;;;;;;5012880;28;20045;-71
2023/06/18 12:19:58;;;;;;;12.00;8.30;;;;;;;;;;5021626;28;20516;-71
2023/06/18 12:22:24;;;;;;;10.10;7.90;;;;;;;;;;5016407;28;20057;-72
2023/06/18 12:24:49;;;;;;;11.32;8.32;;;;;;;;;;5016469;28;20503;-72
2023/06/18 12:27:15;;;;;;;9.52;7.75;;;;;;;;;;5015682;28;20042;-72
2023/06/18 12:29:44;;;;;;;9.82;7.18;;;;;;;;;;5016721;28;20140;-71
2023/06/18 12:32:11;;;;;;;7.78;6.47;;;;;;;;;;5020136;28;20053;-72
2023/06/18 12:34:37;;;;;;;9.13;7.57;;;;;;;;;;5023257;28;20138;-72
2023/06/18 12:37:03;;;;;;;9.90;7.57;;;;;;;;;;5019704;28;20040;-72
2023/06/18 12:39:28;;;;;;;9.13;7.03;;;;;;;;;;5015925;28;20519;-72
2023/06/18 12:41:55;;;;;;;9.65;7.22;;;;;;;;;;5019138;28;20049;-72
2023/06/18 12:44:21;;;;;;;8.95;6.95;;;;;;;;;;5019575;28;20037;-72
2023/06/18 12:46:48;;;;;;;7.97;6.45;;;;;;;;;;5020319;28;20041;-72
2023/06/18 12:49:17;;;;;;;7.55;6.10;;;;;;;;;;5024338;28;20105;-71
2023/06/18 12:51:47;;;;;;;10.23;5.90;;;;;;;;;;5030908;28;20026;-71
2023/06/18 12:54:18;;;;;;;5.95;5.22;;;;;;;;;;5021962;28;20033;-71
2023/06/18 12:57:01;;;;;;;6.53;5.15;;;;;;;;;;5018271;28;20037;-71
2023/06/18 12:59:27;;;;;;;7.03;5.30;;;;;;;;;;5020614;28;20045;-72
2023/06/18 13:01:53;;;;;;;6.30;5.38;;;;;;;;;;5025914;28;20040;-72
2023/06/18 13:04:21;;;;;;;6.35;5.22;;;;;;;;;;5019676;28;20139;-73
2023/06/18 13:06:47;;;;;;;8.45;5.95;;;;;;;;;;5016620;28;20115;-72
2023/06/18 13:09:12;;;;;;;8.65;6.18;;;;;;;;;;5002871;28;20069;-73
2023/06/18 13:11:38;;;;;;;8.32;6.28;;;;;;;;;;5013130;28;20588;-73
2023/06/18 13:14:03;;;;;;;10.38;7.10;;;;;;;;;;5015811;28;20037;-72
2023/06/18 13:16:29;;;;;;;11.65;8.68;;;;;;;;;;5017410;28;20514;-73
2023/06/18 13:18:54;;;;;;;8.45;6.22;;;;;;;;;;5019686;28;20030;-73
2023/06/18 13:21:20;;;;;;;11.35;8.30;;;;;;;;;;5020440;28;20069;-73
2023/06/18 13:23:45;;;;;;;8.55;6.80;;;;;;;;;;5017343;28;20568;-73
2023/06/18 13:26:11;;;;;;;10.05;6.60;;;;;;;;;;5015036;28;20070;-73
2023/06/18 13:28:36;;;;;;;8.32;6.45;;;;;;;;;;5016846;28;20464;-71
2023/06/18 13:31:02;;;;;;;8.35;6.57;;;;;;;;;;5018919;28;20095;-71
2023/06/18 13:33:27;;;;;;;8.13;6.38;;;;;;;;;;5022485;28;20468;-72
2023/06/18 13:35:52;;;;;;;6.32;5.68;;;;;;;;;;5019988;28;20049;-72
2023/06/18 13:38:18;;;;;;;6.82;6.13;;;;;;;;;;5021602;28;20040;-72
2023/06/18 13:40:44;;;;;;;8.73;6.55;;;;;;;;;;5020188;28;20503;-72
2023/06/18 13:43:12;;;;;;;8.77;6.55;;;;;;;;;;5022782;28;20033;-72
2023/06/18 13:45:39;;;;;;;8.40;6.25;;;;;;;;;;5018548;28;20045;-72
2023/06/18 13:48:06;;;;;;;9.18;6.50;;;;;;;;;;5014011;28;20597;-72
2023/06/18 13:50:31;;;;;;;8.35;6.85;;;;;;;;;;5018881;28;20041;-73
2023/06/18 13:52:57;;;;;;;8.73;7.30;;;;;;;;;;5015682;28;20041;-72
2023/06/18 13:55:22;;;;;;;8.15;7.25;;;;;;;;;;5014774;28;20208;-73
2023/06/18 13:57:48;;;;;;;9.55;7.35;;;;;;;;;;5019243;28;20108;-72
2023/06/18 14:00:14;;;;;;;10.65;7.35;;;;;;;;;;5013006;28;20407;-72
2023/06/18 14:02:39;;;;;;;8.57;7.18;;;;;;;;;;5012711;28;20581;-72
2023/06/18 14:05:06;;;;;;;10.38;7.80;;;;;;;;;;5017930;28;20471;-72
2023/06/18 14:07:32;;;;;;;9.45;8.02;;;;;;;;;;5011049;28;20036;-72
2023/06/18 14:09:58;;;;;;;13.75;7.70;;;;;;;;;;5009528;28;20041;-72
2023/06/18 14:12:25;;;;;;;12.45;8.07;;;;;;;;;;5009425;28;20052;-72
2023/06/18 14:14:51;;;;;;;10.73;8.30;;;;;;;;;;5028799;28;20048;-72
2023/06/18 14:17:16;;;;;;;13.02;8.90;;;;;;;;;;5033210;28;20029;-72
2023/06/18 14:19:42;;;;;;;11.13;8.23;;;;;;;;;;5029168;28;20585;-72
2023/06/18 14:22:08;;;;;;;11.98;8.85;;;;;;;;;;5023013;28;20025;-72
2023/06/18 14:24:34;;;;;;;11.68;8.48;;;;;;;;;;5014219;28;20048;-72
2023/06/18 14:27:00;;;;;;;11.45;8.70;;;;;;;;;;5011090;28;20053;-72
2023/06/18 14:29:25;;;;;;;11.15;8.88;;;;;;;;;;5018021;28;20050;-72
2023/06/18 14:31:51;;;;;;;12.60;9.50;;;;;;;;;;5022733;28;20419;-72